createdAt,value
2018-07-13T04:56:47.353Z,98.90
2018-07-13T04:58:49.514Z,98.70
2018-07-13T05:00:51.868Z,98.60
2018-07-13T05:02:53.980Z,98.60
2018-07-13T05:04:56.059Z,98.50
2018-07-13T05:06:58.178Z,98.80
2018-07-13T05:09:00.293Z,98.80
2018-07-13T05:11:02.486Z,98.70
2018-07-13T05:13:04.619Z,98.80
2018-07-13T05:15:07.473Z,98.20
2018-07-13T05:17:09.558Z,98.60
2018-07-13T05:19:11.677Z,98.10
2018-07-13T05:21:13.778Z,98.50
2018-07-13T05:23:15.894Z,98.60
2018-07-13T05:25:18.061Z,98.30
2018-07-13T05:27:20.178Z,98.30
2018-07-13T05:29:22.270Z,98.50
2018-07-13T05:31:24.382Z,98.40
2018-07-13T05:33:26.473Z,98.50
2018-07-13T05:35:28.657Z,98.30
2018-07-13T05:37:31.266Z,98.40
2018-07-13T05:39:33.380Z,98.20
2018-07-13T05:41:35.493Z,98.00
2018-07-13T05:43:37.661Z,97.80
2018-07-13T05:45:39.784Z,98.00
2018-07-13T05:47:41.949Z,98.20
2018-07-13T05:49:44.199Z,98.20
2018-07-13T05:51:46.221Z,97.70
2018-07-13T05:53:48.317Z,98.10
2018-07-13T05:55:50.450Z,98.50
2018-07-13T05:57:52.680Z,98.30
2018-07-13T05:59:54.734Z,98.70
2018-07-13T06:01:56.876Z,98.20
2018-07-13T06:03:59.047Z,98.60
2018-07-13T06:06:01.130Z,98.20
2018-07-13T06:08:03.269Z,98.30
2018-07-13T06:10:05.365Z,98.10
2018-07-13T06:12:07.597Z,98.10
2018-07-13T06:14:09.690Z,98.00
2018-07-13T06:16:11.745Z,97.80
2018-07-13T06:18:13.818Z,98.10
2018-07-13T06:20:15.981Z,98.20
2018-07-13T06:22:18.074Z,98.20
2018-07-13T06:24:20.204Z,97.80
2018-07-13T06:26:22.220Z,97.70
2018-07-13T06:28:24.313Z,97.80
2018-07-13T06:30:26.430Z,98.10
2018-07-13T06:32:28.698Z,98.50
2018-07-13T06:34:30.790Z,98.00
2018-07-13T06:36:32.842Z,98.30
2018-07-13T06:38:34.979Z,98.10
2018-07-13T06:40:37.072Z,98.10
2018-07-13T06:42:39.198Z,98.30
2018-07-13T06:44:41.430Z,97.90
2018-07-13T06:46:46.090Z,97.30
2018-07-13T06:48:48.170Z,97.90
2018-07-13T06:50:50.354Z,97.90
2018-07-13T06:52:52.347Z,98.30
2018-07-13T06:54:54.458Z,98.30
2018-07-13T06:56:56.705Z,97.90
2018-07-13T06:59:06.210Z,97.80
2018-07-13T07:01:08.814Z,98.10
2018-07-13T07:03:10.869Z,98.20
2018-07-13T07:06:19.413Z,98.40
2018-07-13T07:08:21.554Z,98.30
2018-07-13T07:10:23.629Z,98.20
2018-07-13T07:12:53.206Z,98.30
2018-07-13T07:14:55.281Z,98.30
2018-07-13T07:16:57.313Z,97.90
2018-07-13T07:18:59.367Z,98.00
2018-07-13T07:21:01.424Z,97.90
2018-07-13T07:23:03.466Z,98.40
2018-07-13T07:25:05.893Z,98.30
2018-07-13T07:27:08.061Z,97.40
2018-07-13T07:29:10.098Z,97.70
2018-07-13T07:31:12.165Z,97.70
2018-07-13T07:33:14.242Z,97.90
2018-07-13T07:35:16.308Z,97.90
2018-07-13T07:37:18.338Z,97.70
2018-07-13T07:39:20.409Z,97.90
2018-07-13T07:41:22.507Z,98.00
2018-07-13T07:43:24.557Z,97.70
2018-07-13T07:45:26.661Z,97.80
2018-07-13T07:47:28.741Z,97.70
2018-07-13T07:49:30.828Z,97.60
2018-07-13T07:51:33.049Z,97.40
2018-07-13T07:53:35.130Z,97.70
2018-07-13T07:55:37.206Z,98.00
2018-07-13T07:57:39.396Z,97.70
2018-07-13T07:59:41.330Z,98.00
2018-07-13T08:01:43.422Z,97.60
2018-07-13T08:03:45.455Z,98.00
2018-07-13T08:05:47.513Z,97.70
2018-07-13T08:07:49.582Z,97.00
2018-07-13T08:09:51.639Z,97.70
2018-07-13T08:11:53.768Z,97.90
2018-07-13T08:13:55.907Z,97.20
2018-07-13T08:15:57.916Z,97.20
2018-07-13T08:18:00.184Z,97.40
2018-07-13T08:20:02.458Z,97.30
2018-07-13T08:22:13.562Z,97.30
2018-07-13T08:24:17.973Z,97.00
2018-07-13T08:26:20.149Z,97.80
2018-07-13T08:28:22.325Z,96.90
2018-07-13T08:30:26.944Z,96.80
2018-07-13T08:32:29.039Z,96.50
2018-07-13T08:34:31.118Z,96.90
2018-07-13T08:36:33.461Z,96.80
2018-07-13T08:38:35.616Z,96.70
2018-07-13T08:40:37.738Z,96.40
2018-07-13T08:42:40.445Z,96.70
2018-07-13T08:44:42.544Z,96.70
2018-07-13T08:46:44.633Z,96.60
2018-07-13T08:48:47.016Z,97.00
2018-07-13T08:50:49.625Z,96.70
2018-07-13T08:52:51.796Z,96.80
2018-07-13T08:54:53.998Z,96.60
2018-07-13T08:56:56.325Z,96.90
2018-07-13T08:58:58.438Z,96.90
2018-07-13T09:01:00.495Z,97.30
2018-07-13T09:03:02.607Z,96.20
2018-07-13T09:05:05.134Z,96.40
2018-07-13T09:07:07.358Z,96.20
2018-07-13T09:09:12.376Z,96.50
2018-07-13T09:11:14.477Z,97.20
2018-07-13T09:13:16.604Z,96.80
2018-07-13T09:15:18.734Z,97.30
2018-07-13T09:17:21.368Z,96.70
2018-07-13T09:19:23.525Z,96.50
2018-07-13T09:21:25.659Z,96.50
2018-07-13T09:23:27.710Z,96.30
2018-07-13T09:25:29.829Z,96.10
2018-07-13T09:27:31.942Z,96.20
2018-07-13T09:29:34.011Z,95.70
2018-07-13T09:31:36.106Z,96.30
2018-07-13T09:33:38.221Z,97.00
2018-07-13T09:35:40.313Z,97.10
2018-07-13T09:37:42.557Z,96.00
2018-07-13T09:39:44.710Z,96.30
2018-07-13T09:41:46.937Z,96.10
2018-07-13T09:43:49.141Z,96.20
2018-07-13T09:45:51.307Z,95.90
2018-07-13T09:47:53.499Z,95.10
2018-07-13T09:49:55.698Z,94.90
2018-07-13T09:51:57.891Z,95.60
2018-07-13T09:54:00.192Z,94.20
2018-07-13T09:56:02.142Z,93.00
2018-07-13T09:58:04.203Z,93.70
2018-07-13T10:00:08.221Z,93.80
2018-07-13T10:02:10.302Z,92.70
2018-07-13T10:04:12.364Z,92.20
2018-07-13T10:08:16.587Z,92.70
2018-07-13T10:10:18.661Z,91.80
2018-07-13T10:12:20.732Z,92.00
2018-07-13T10:14:22.914Z,90.80
2018-07-13T10:16:25.022Z,90.80
2018-07-13T10:18:27.182Z,91.20
2018-07-13T10:20:29.353Z,91.80
2018-07-13T10:22:31.543Z,92.40
2018-07-13T10:24:34.951Z,90.50
2018-07-13T10:26:38.383Z,91.30
2018-07-13T10:28:40.574Z,91.00
2018-07-13T10:30:42.748Z,90.40
2018-07-13T10:32:44.873Z,89.00
2018-07-13T10:34:46.995Z,88.60
2018-07-13T10:36:55.294Z,86.10
2018-07-13T10:38:57.457Z,82.40
2018-07-13T10:40:59.600Z,83.30
2018-07-13T10:43:02.182Z,85.20
2018-07-13T10:45:04.396Z,80.70
2018-07-13T10:47:06.523Z,84.60
2018-07-13T10:49:08.658Z,79.80
2018-07-13T10:51:10.799Z,80.80
2018-07-13T10:53:13.014Z,85.10
2018-07-13T10:55:15.225Z,80.00
2018-07-13T10:57:17.301Z,76.40
2018-07-13T10:59:19.381Z,84.20
2018-07-13T11:01:21.583Z,78.10
2018-07-13T11:03:23.683Z,77.20
2018-07-13T11:05:25.801Z,73.40
2018-07-13T11:07:27.901Z,76.60
2018-07-13T11:09:30.018Z,77.10
2018-07-13T11:11:32.176Z,81.90
2018-07-13T11:13:34.381Z,73.50
2018-07-13T11:15:36.493Z,74.90
2018-07-13T11:17:38.613Z,76.70
2018-07-13T11:19:40.685Z,68.90
2018-07-13T11:21:42.872Z,66.90
2018-07-13T11:23:44.957Z,73.10
2018-07-13T11:25:47.158Z,66.60
2018-07-13T11:27:49.237Z,68.40
2018-07-13T11:29:51.439Z,68.50
2018-07-13T11:31:53.677Z,65.70
2018-07-13T11:33:55.897Z,67.90
2018-07-13T11:35:57.995Z,63.80
2018-07-13T11:38:00.166Z,62.80
2018-07-13T11:40:02.257Z,67.40
2018-07-13T11:48:10.846Z,55.30
2018-07-13T11:50:12.991Z,58.20
2018-07-13T11:52:15.170Z,56.60
2018-07-13T11:54:17.204Z,59.90
2018-07-13T11:56:19.432Z,44.70
2018-07-13T11:58:21.554Z,43.30
2018-07-13T12:00:23.643Z,41.90
2018-07-13T12:02:25.829Z,42.30
2018-07-13T12:04:27.934Z,42.40
2018-07-13T12:06:30.107Z,41.20
2018-07-13T12:08:32.199Z,39.30
2018-07-13T12:10:34.266Z,40.50
2018-07-13T12:12:36.370Z,36.90
2018-07-13T12:14:38.463Z,39.50
2018-07-13T12:16:42.033Z,32.90
2018-07-13T12:18:44.029Z,38.70
2018-07-13T12:20:46.557Z,40.60
2018-07-13T12:22:48.768Z,31.90
2018-07-13T12:24:51.166Z,33.80
2018-07-13T12:26:53.321Z,39.70
2018-07-13T12:28:55.725Z,40.80
2018-07-13T12:30:58.366Z,35.00
2018-07-13T12:33:00.585Z,34.80
2018-07-13T12:35:02.764Z,36.20
2018-07-13T12:37:04.882Z,36.10
2018-07-13T12:39:06.981Z,32.90
2018-07-13T12:41:09.125Z,35.00
2018-07-13T12:43:11.194Z,34.60
2018-07-13T12:45:13.449Z,36.70
2018-07-13T12:47:15.570Z,32.80
2018-07-13T12:49:17.787Z,34.30
2018-07-13T12:51:20.178Z,31.90
2018-07-13T12:53:22.357Z,31.50
2018-07-13T12:55:24.661Z,31.20
2018-07-13T12:57:26.766Z,28.30
2018-07-13T12:59:29.292Z,35.80
2018-07-13T13:01:31.575Z,32.50
2018-07-13T13:03:33.775Z,31.00
2018-07-13T13:05:35.960Z,31.90
2018-07-13T13:07:38.865Z,30.70
2018-07-13T13:09:40.962Z,31.50
2018-07-13T13:11:43.073Z,29.00
2018-07-13T13:13:45.265Z,28.20
2018-07-13T13:15:47.530Z,30.40
2018-07-13T13:17:49.618Z,31.00
2018-07-13T13:19:51.905Z,31.80
2018-07-13T13:21:54.167Z,30.70
2018-07-13T13:23:56.157Z,31.50
2018-07-13T13:25:58.295Z,30.20
2018-07-13T13:28:00.578Z,34.70
2018-07-13T13:30:02.782Z,28.60
2018-07-13T13:32:04.953Z,29.60
2018-07-13T13:34:07.223Z,25.40
2018-07-13T13:36:09.302Z,27.40
2018-07-13T13:38:11.434Z,27.30
2018-07-13T13:40:13.676Z,27.50
2018-07-13T13:42:15.765Z,29.30
2018-07-13T13:44:18.015Z,27.80
2018-07-13T13:46:20.135Z,28.70
2018-07-13T13:48:22.253Z,24.00
2018-07-13T13:50:24.420Z,27.30
2018-07-13T13:52:26.662Z,25.90
2018-07-13T13:54:28.728Z,26.50
2018-07-13T13:56:30.930Z,27.10
2018-07-13T13:58:33.158Z,24.30
2018-07-13T14:00:35.268Z,27.50
2018-07-13T14:02:37.463Z,30.60
2018-07-13T14:04:39.694Z,25.30
2018-07-13T14:06:41.881Z,24.30
2018-07-13T14:08:44.054Z,22.70
2018-07-13T14:10:46.196Z,21.50
2018-07-13T14:12:48.403Z,25.50
2018-07-13T14:14:50.565Z,26.00
2018-07-13T14:16:52.658Z,25.00
2018-07-13T14:18:54.901Z,26.90
2018-07-13T14:20:57.424Z,25.40
2018-07-13T14:22:59.550Z,26.00
2018-07-13T14:25:01.686Z,25.60
2018-07-13T14:27:04.014Z,24.50
2018-07-13T14:29:06.206Z,25.50
2018-07-13T14:31:08.394Z,24.60
2018-07-13T14:33:10.542Z,27.00
2018-07-13T14:35:12.676Z,24.10
2018-07-13T14:39:17.115Z,30.20
2018-07-13T14:41:19.298Z,32.40
2018-07-13T14:43:21.390Z,28.50
2018-07-13T14:45:23.482Z,30.20
2018-07-13T14:47:25.728Z,26.20
2018-07-13T14:49:27.810Z,28.10
2018-07-13T14:51:30.026Z,29.30
2018-07-13T14:53:32.189Z,29.10
2018-07-13T14:55:34.356Z,29.60
2018-07-13T14:57:36.538Z,28.60
2018-07-13T14:59:38.781Z,29.90
2018-07-13T15:01:42.104Z,26.10
2018-07-13T15:03:44.346Z,29.10
2018-07-13T15:05:46.611Z,25.40
2018-07-13T15:07:48.806Z,26.40
2018-07-13T15:09:51.000Z,26.60
2018-07-13T15:13:55.446Z,24.50
2018-07-13T15:15:57.582Z,26.80
2018-07-13T15:17:59.732Z,27.20
2018-07-13T15:20:01.838Z,25.80
2018-07-13T15:22:04.158Z,25.20
2018-07-13T15:24:06.421Z,28.40
2018-07-13T15:26:08.565Z,25.80
2018-07-13T15:28:10.756Z,26.20
2018-07-13T15:30:12.867Z,24.50
2018-07-13T15:32:15.050Z,25.40
2018-07-13T15:34:17.309Z,23.90
2018-07-13T15:36:19.438Z,22.80
2018-07-13T15:38:21.670Z,21.60
2018-07-13T15:40:23.786Z,24.80
2018-07-13T15:42:25.858Z,24.00
2018-07-13T15:44:28.179Z,24.50
2018-07-13T15:46:30.283Z,25.30
2018-07-13T15:48:32.489Z,23.70
2018-07-13T15:50:34.599Z,22.90
2018-07-13T15:52:36.711Z,24.50
2018-07-13T15:54:38.870Z,22.00
2018-07-13T15:56:40.992Z,25.10
2018-07-13T15:58:43.225Z,22.80
2018-07-13T16:00:45.177Z,21.70
2018-07-13T16:02:47.327Z,23.20
2018-07-13T16:04:49.514Z,25.00
2018-07-13T16:06:51.634Z,25.20
2018-07-13T16:08:53.770Z,23.80
2018-07-13T16:10:55.920Z,24.90
2018-07-13T16:15:00.190Z,23.90
2018-07-13T16:17:02.363Z,23.80
2018-07-13T16:19:04.484Z,22.30
2018-07-13T16:21:06.666Z,21.60
2018-07-13T16:23:08.902Z,21.40
2018-07-13T16:25:11.013Z,20.80
2018-07-13T16:27:13.130Z,21.10
2018-07-13T16:29:15.246Z,21.60
2018-07-13T16:31:17.361Z,21.00
2018-07-13T16:33:19.434Z,21.80
2018-07-13T16:35:21.545Z,23.00
2018-07-13T16:37:23.692Z,22.40
2018-07-13T16:39:25.932Z,23.60
2018-07-13T16:41:28.010Z,23.20
2018-07-13T16:43:30.254Z,23.60
2018-07-13T16:45:32.449Z,23.50
2018-07-13T16:47:34.632Z,23.80
2018-07-13T16:49:36.697Z,23.40
2018-07-13T16:51:38.811Z,23.40
2018-07-13T16:53:41.080Z,24.50
2018-07-13T16:55:43.193Z,25.90
2018-07-13T16:57:45.362Z,24.60
2018-07-13T16:59:47.558Z,25.20
2018-07-13T17:01:49.753Z,23.80
2018-07-13T17:03:51.856Z,25.70
2018-07-13T17:05:54.087Z,26.60
2018-07-13T17:07:56.160Z,27.00
2018-07-13T17:09:58.267Z,25.40
2018-07-13T17:12:00.359Z,23.00
2018-07-13T17:14:02.431Z,24.10
2018-07-13T17:16:04.650Z,24.90
2018-07-13T17:18:06.765Z,25.30
2018-07-13T17:20:08.862Z,25.30
2018-07-13T17:22:10.878Z,26.70
2018-07-13T17:24:12.968Z,27.00
2018-07-13T17:26:15.075Z,25.20
2018-07-13T17:28:17.105Z,25.90
2018-07-13T17:30:19.179Z,26.70
2018-07-13T17:32:21.254Z,26.90
2018-07-13T17:34:23.322Z,28.10
2018-07-13T17:36:25.366Z,25.20
2018-07-13T17:38:27.435Z,26.80
2018-07-13T17:40:29.529Z,25.30
2018-07-13T17:44:33.697Z,25.50
2018-07-13T17:46:35.772Z,26.30
2018-07-13T17:48:37.800Z,26.20
2018-07-13T17:50:39.854Z,27.20
2018-07-13T17:52:41.935Z,26.50
2018-07-13T17:54:44.133Z,26.70
2018-07-13T17:56:46.213Z,27.50
2018-07-13T17:58:48.318Z,27.10
2018-07-13T18:00:50.585Z,28.70
2018-07-13T18:02:52.453Z,27.70
2018-07-13T18:04:56.306Z,29.90
2018-07-13T18:06:58.409Z,30.90
2018-07-13T18:09:00.469Z,32.00
2018-07-13T18:11:02.537Z,32.30
2018-07-13T18:13:05.125Z,33.00
2018-07-13T18:15:07.210Z,32.80
2018-07-13T18:17:09.287Z,32.80
2018-07-13T18:19:11.342Z,36.30
2018-07-13T18:21:13.401Z,34.60
2018-07-13T18:23:15.485Z,35.60
2018-07-13T18:25:17.597Z,38.30
2018-07-13T18:27:19.681Z,37.80
2018-07-13T18:29:21.742Z,38.50
2018-07-13T18:31:23.785Z,41.20
2018-07-13T18:33:25.891Z,41.30
2018-07-13T18:35:27.934Z,42.20
2018-07-13T18:37:29.997Z,43.60
2018-07-13T18:39:32.054Z,45.50
2018-07-13T18:41:34.090Z,46.40
2018-07-13T18:43:36.140Z,47.10
2018-07-13T18:45:38.242Z,49.60
2018-07-13T18:47:40.351Z,49.10
2018-07-13T18:49:42.459Z,50.20
2018-07-13T18:51:44.513Z,50.40
2018-07-13T18:53:46.565Z,51.70
2018-07-13T18:55:48.638Z,52.70
2018-07-13T18:57:50.778Z,54.20
2018-07-13T18:59:52.896Z,54.10
2018-07-13T19:01:54.913Z,56.00
2018-07-13T19:03:56.989Z,56.70
2018-07-13T19:05:59.055Z,57.70
2018-07-13T19:10:05.023Z,57.30
2018-07-13T19:12:07.105Z,59.20
2018-07-13T19:14:09.193Z,58.50
2018-07-13T19:16:11.313Z,60.60
2018-07-13T19:18:13.397Z,60.50
2018-07-13T19:20:15.463Z,61.50
2018-07-13T19:22:17.498Z,63.10
2018-07-13T19:24:19.573Z,63.60
2018-07-13T19:26:21.638Z,63.40
2018-07-13T19:28:23.679Z,64.70
2018-07-13T19:32:27.843Z,68.10
2018-07-13T19:34:29.965Z,67.70
2018-07-13T19:36:32.076Z,69.90
2018-07-13T19:38:34.050Z,69.80
2018-07-13T19:40:36.160Z,69.60
2018-07-13T19:42:38.227Z,69.10
2018-07-13T19:44:40.329Z,69.80
2018-07-13T19:46:42.491Z,70.20
2018-07-13T19:48:44.505Z,72.40
2018-07-13T19:50:46.541Z,71.00
2018-07-13T19:52:48.583Z,71.40
2018-07-13T19:54:50.662Z,71.90
2018-07-13T19:56:52.801Z,75.90
2018-07-13T19:58:54.869Z,74.60
2018-07-13T20:00:56.933Z,73.90
2018-07-13T20:02:59.001Z,74.70
2018-07-13T20:05:01.049Z,77.00
2018-07-13T20:07:03.090Z,78.80
2018-07-13T20:09:05.590Z,77.20
2018-07-13T20:11:07.728Z,78.80
2018-07-13T20:13:09.705Z,79.20
2018-07-13T20:15:11.774Z,80.90
2018-07-13T20:17:13.826Z,81.50
2018-07-13T20:19:15.873Z,82.40
2018-07-13T20:21:17.918Z,83.10
2018-07-13T20:23:19.969Z,83.10
2018-07-13T20:25:22.017Z,83.10
2018-07-13T20:29:26.168Z,83.70
2018-07-13T20:31:28.217Z,85.60
2018-07-13T20:33:30.276Z,84.20
2018-07-13T20:35:32.546Z,85.30
2018-07-13T20:37:34.600Z,86.30
2018-07-13T20:39:38.260Z,86.90
2018-07-13T20:41:40.309Z,88.60
2018-07-13T20:43:42.405Z,88.10
2018-07-13T20:45:44.473Z,88.00
2018-07-13T20:47:46.522Z,89.20
2018-07-13T20:49:48.567Z,88.60
2018-07-13T20:51:50.701Z,89.10
2018-07-13T20:53:52.773Z,89.00
2018-07-13T20:55:54.822Z,89.60
2018-07-13T20:57:56.866Z,90.30
2018-07-13T20:59:58.913Z,91.30
2018-07-13T21:02:01.059Z,91.10
2018-07-13T21:04:03.138Z,91.30
2018-07-13T21:06:05.233Z,91.20
2018-07-13T21:08:07.341Z,91.30
2018-07-13T21:10:09.463Z,91.30
2018-07-13T21:12:11.522Z,91.70
2018-07-13T21:14:13.573Z,91.50
2018-07-13T21:16:15.610Z,91.50
2018-07-13T21:18:17.670Z,91.80
2018-07-13T21:20:19.840Z,92.20
2018-07-13T21:22:21.799Z,91.50
2018-07-13T21:24:23.855Z,92.00
2018-07-13T21:26:25.917Z,92.20
2018-07-13T21:28:28.274Z,92.30
2018-07-13T21:30:30.313Z,92.80
2018-07-13T21:32:32.403Z,92.90
2018-07-13T21:34:34.454Z,92.60
2018-07-13T21:36:36.543Z,93.10
2018-07-13T21:38:38.611Z,92.90
2018-07-13T21:40:40.662Z,93.70
2018-07-13T21:42:42.738Z,93.70
2018-07-13T21:44:44.809Z,93.70
2018-07-13T21:46:46.905Z,93.90
2018-07-13T21:48:49.267Z,94.10
2018-07-13T21:50:51.330Z,94.00
2018-07-13T21:52:53.417Z,94.10
2018-07-13T21:54:55.473Z,94.10
2018-07-13T21:56:57.526Z,94.10
2018-07-13T21:58:59.580Z,94.10
2018-07-13T22:01:01.649Z,94.00
2018-07-13T22:03:04.617Z,94.20
2018-07-13T22:05:06.658Z,94.00
2018-07-13T22:07:08.824Z,94.20
2018-07-13T22:09:10.873Z,94.40
2018-07-13T22:11:13.086Z,94.00
2018-07-13T22:13:15.192Z,94.10
2018-07-13T22:15:17.229Z,93.80
2018-07-13T22:17:19.254Z,93.70
2018-07-13T22:19:21.290Z,94.00
2018-07-13T22:21:23.359Z,93.50
2018-07-13T22:23:25.429Z,93.90
2018-07-13T22:25:27.496Z,93.90
2018-07-13T22:27:29.669Z,93.90
2018-07-13T22:29:31.716Z,94.40
2018-07-13T22:31:33.799Z,94.50
2018-07-13T22:33:35.885Z,94.30
2018-07-13T22:35:37.982Z,94.70
2018-07-13T22:37:40.029Z,94.50
2018-07-13T22:39:42.117Z,94.50
2018-07-13T22:41:44.174Z,94.40
2018-07-13T22:43:46.250Z,94.80
2018-07-13T22:45:48.321Z,94.20
2018-07-13T22:47:50.409Z,94.60
2018-07-13T22:49:52.457Z,93.80
2018-07-13T22:51:54.521Z,94.40
2018-07-13T22:53:56.573Z,93.80
2018-07-13T22:55:58.668Z,94.30
2018-07-13T22:58:00.995Z,94.00
2018-07-13T23:00:03.177Z,94.10
2018-07-13T23:02:05.461Z,93.80
2018-07-13T23:04:07.557Z,94.00
2018-07-13T23:06:09.661Z,94.40
2018-07-13T23:08:11.785Z,94.00
2018-07-13T23:10:13.867Z,94.40
2018-07-13T23:12:15.901Z,94.30
2018-07-13T23:14:17.966Z,94.60
2018-07-13T23:16:20.014Z,94.30
2018-07-13T23:18:22.045Z,94.10
2018-07-13T23:20:24.157Z,94.80
2018-07-13T23:22:26.209Z,95.40
2018-07-13T23:24:28.262Z,95.00
2018-07-13T23:28:32.438Z,94.80
2018-07-13T23:30:34.501Z,94.80
2018-07-13T23:32:36.606Z,94.90
2018-07-13T23:34:38.682Z,95.30
2018-07-13T23:36:40.782Z,95.00
2018-07-13T23:38:42.851Z,95.00
2018-07-13T23:40:44.949Z,94.40
2018-07-13T23:42:47.081Z,94.70
2018-07-13T23:44:49.167Z,94.70
2018-07-13T23:46:51.255Z,94.70
2018-07-13T23:48:53.404Z,95.30
2018-07-13T23:50:55.463Z,94.80
2018-07-13T23:57:48.281Z,94.90
